Aérodrome :
LOGIN :

S'inscrire | Disclaimer

   EN    FR    IT 

 










Légende :    VFR   VFR Marginal   IFR   IFR Intensif   IFR Très Intensif
Visi : 
Plafond : 
>= 8 km
>= 3000ft
5 à 8 km
1000 à 3000 ft
1500m à 5 km
500 à 1000 ft
800 à 1500m
200 à 500 ft
< 800m
< 200 ft
Symboles :   Orages  Brouillard  Fortes neiges  Fortes précipitations  Vent > 20 kt
SIGMETs :   Divers  Orages  Givrage  Turbulence  Onde Orograph.  Cendres Volcan.







- Altitude de l'aérodrome : 1470 ft
- Code IATA : KLU


LOWK - Klagenfurt

DERNIER METAR :
  • 210350Z AUTO VRB01KT 9999 FEW013 BKN017 M04/M06 Q1019

METARs EXPIRÉS :
  • 210320Z AUTO VRB01KT 9999 FEW014 BKN018 M04/M06 Q1019
  • 210250Z AUTO VRB01KT 9999 FEW009 BKN018 M05/M06 Q1019
  • 210220Z AUTO VRB01KT 9999 FEW008 BKN020 M05/M06 Q1019
  • 210150Z AUTO VRB01KT 9999 FEW010 OVC020 M05/M06 Q1019
  • 210120Z AUTO VRB01KT 9999 FEW006 SCT008 BKN020 M05/M07 Q1019

TAF TAF LOWK
Valide du 21 à 00h jusqu'au 22 à 00h UTC


202315Z 2100/2124 VRB02KT 9999 SCT025 TXM01/2114Z TNM07/2104Z
TEMPO 2100/2108 5000 BR BKN008
TEMPO 2115/2122 CAVOK
Pas de NOTAMs connus pour ce terrain.



MET'MAP, la Météo Aéronautique d'un coup d'oeil ! - Copyright ORBIFLY Décembre 2007 - Disclaimer

ORBIFLY MET'MAP TEAM :

Programmation & Développement : Alexandra Zaïnal
Conception & Développement : Baudouin d'Aumeries
Co-Programmation & Développement : Marc-Olivier Méhu
Soutien technique & logistique : Manuel Goepfert

Contact : metmap@orbifly.com




SOURCES & CREDITS :

   NOAA